createdAt,value
2023-02-15T00:01:43.035Z,25.92
2023-02-15T00:04:12.789Z,26.52
2023-02-15T00:06:39.538Z,26.27
2023-02-15T00:09:06.447Z,24.70
2023-02-15T00:11:43.839Z,26.20
2023-02-15T00:14:13.372Z,24.40
2023-02-15T00:16:42.030Z,24.38
2023-02-15T00:19:09.669Z,26.70
2023-02-15T00:21:38.012Z,26.27
2023-02-15T00:24:08.191Z,26.13
2023-02-15T00:26:36.340Z,25.08
2023-02-15T00:29:03.430Z,26.80
2023-02-15T00:31:32.690Z,26.38
2023-02-15T00:34:12.822Z,24.13
2023-02-15T00:36:40.148Z,25.92
2023-02-15T00:39:07.393Z,25.27
2023-02-15T00:41:35.993Z,26.70
2023-02-15T00:44:03.399Z,26.98
2023-02-15T00:46:30.552Z,23.33
2023-02-15T00:51:24.655Z,24.65
2023-02-15T00:53:52.218Z,23.30
2023-02-15T00:56:19.559Z,24.02
2023-02-15T00:58:46.799Z,28.90
2023-02-15T01:01:17.219Z,27.52
2023-02-15T01:03:46.880Z,25.92
2023-02-15T01:06:15.349Z,28.30
2023-02-15T01:08:44.558Z,27.13
2023-02-15T01:11:15.175Z,28.40
2023-02-15T01:13:42.583Z,25.27
2023-02-15T01:16:09.777Z,25.75
2023-02-15T01:18:37.118Z,24.55
2023-02-15T01:21:18.913Z,25.50
2023-02-15T01:23:46.100Z,29.75
2023-02-15T01:26:13.485Z,28.35
2023-02-15T01:31:15.988Z,27.25
2023-02-15T01:33:46.114Z,28.05
2023-02-15T01:36:13.330Z,30.05
2023-02-15T01:41:27.405Z,20.98
2023-02-15T01:43:57.703Z,27.83
2023-02-15T01:46:47.017Z,28.65
2023-02-15T01:49:18.039Z,27.88
2023-02-15T01:51:47.422Z,28.88
2023-02-15T01:54:25.778Z,24.75
2023-02-15T01:56:56.017Z,26.88
2023-02-15T01:59:25.030Z,26.80
2023-02-15T02:02:00.596Z,28.13
2023-02-15T02:04:42.296Z,22.77
2023-02-15T02:07:10.837Z,26.52
2023-02-15T02:09:38.874Z,28.40
2023-02-15T02:12:06.498Z,25.30
2023-02-15T02:18:09.777Z,25.70
2023-02-15T02:20:51.688Z,23.83
2023-02-15T02:23:52.771Z,25.63
2023-02-15T02:26:32.918Z,26.60
2023-02-15T02:29:18.136Z,26.02
2023-02-15T02:32:22.001Z,26.02
2023-02-15T02:35:06.112Z,26.88
2023-02-15T02:37:33.026Z,27.30
2023-02-15T02:42:49.505Z,26.63
2023-02-15T02:45:55.608Z,28.08
2023-02-15T02:48:26.673Z,32.05
2023-02-15T02:50:53.410Z,29.38
2023-02-15T02:53:20.163Z,28.58
2023-02-15T02:55:57.470Z,30.75
2023-02-15T02:58:49.613Z,25.48
2023-02-15T03:01:28.366Z,25.27
2023-02-15T03:04:02.116Z,30.00
2023-02-15T03:06:38.776Z,23.15
2023-02-15T03:09:22.620Z,25.23
2023-02-15T03:11:50.678Z,31.17
2023-02-15T03:14:19.613Z,25.75
2023-02-15T03:16:48.971Z,26.50
2023-02-15T03:19:24.651Z,22.35
2023-02-15T03:22:10.213Z,29.80
2023-02-15T03:24:48.964Z,30.98
2023-02-15T03:27:24.228Z,28.50
2023-02-15T03:29:56.511Z,28.40
2023-02-15T03:32:26.411Z,24.02
2023-02-15T03:34:53.247Z,28.70
2023-02-15T03:37:33.306Z,29.55
2023-02-15T03:40:25.898Z,24.88
2023-02-15T03:43:11.884Z,31.05
2023-02-15T03:45:55.472Z,29.02
2023-02-15T03:48:37.470Z,27.92
2023-02-15T03:51:34.391Z,27.40
2023-02-15T03:54:59.381Z,26.10
2023-02-15T03:57:47.894Z,26.13
2023-02-15T04:00:33.916Z,24.65
2023-02-15T04:03:21.285Z,24.83
2023-02-15T04:05:48.233Z,29.40
2023-02-15T04:08:15.202Z,26.80
2023-02-15T04:10:54.354Z,29.80
2023-02-15T04:13:30.583Z,26.27
2023-02-15T04:16:07.940Z,25.90
2023-02-15T04:19:02.226Z,26.60
2023-02-15T04:21:50.410Z,28.08
2023-02-15T04:24:36.347Z,29.10
2023-02-15T04:27:05.327Z,30.70
2023-02-15T04:29:32.945Z,32.90
2023-02-15T04:32:03.000Z,30.60
2023-02-15T04:34:30.348Z,29.08
2023-02-15T04:36:57.497Z,24.05
2023-02-15T04:39:25.083Z,26.25
2023-02-15T04:41:52.158Z,29.75
2023-02-15T04:44:19.516Z,27.77
2023-02-15T04:46:46.671Z,27.42
2023-02-15T04:51:40.459Z,30.80
2023-02-15T04:54:08.096Z,31.23
2023-02-15T04:56:35.904Z,30.23
2023-02-15T04:59:02.691Z,32.00
2023-02-15T05:01:36.011Z,27.15
2023-02-15T05:04:10.847Z,27.48
2023-02-15T05:06:42.675Z,31.50
2023-02-15T05:09:10.148Z,28.98
2023-02-15T05:11:37.419Z,29.13
2023-02-15T05:14:08.861Z,30.58
2023-02-15T05:16:39.927Z,31.70
2023-02-15T05:19:07.751Z,24.88
2023-02-15T05:21:37.539Z,30.17
2023-02-15T05:24:32.257Z,26.25
2023-02-15T05:27:18.373Z,24.65
2023-02-15T05:29:47.253Z,24.48
2023-02-15T05:32:20.248Z,25.83
2023-02-15T05:34:47.918Z,26.20
2023-02-15T05:37:15.501Z,30.60
2023-02-15T05:39:42.482Z,23.45
2023-02-15T05:42:10.020Z,33.10
2023-02-15T05:44:37.699Z,25.40
2023-02-15T05:47:05.709Z,30.20
2023-02-15T05:49:33.227Z,24.58
2023-02-15T05:52:00.027Z,24.83
2023-02-15T05:54:26.980Z,23.42
2023-02-15T05:56:53.908Z,25.30
2023-02-15T05:59:20.729Z,21.85
2023-02-15T06:01:47.703Z,25.15
2023-02-15T06:04:14.551Z,23.02
2023-02-15T06:06:41.471Z,20.30
2023-02-15T06:09:08.370Z,20.90
2023-02-15T06:11:35.311Z,23.40
2023-02-15T06:14:02.494Z,19.52
2023-02-15T06:19:08.574Z,19.98
2023-02-15T06:21:47.998Z,21.00
2023-02-15T06:24:24.368Z,19.52
2023-02-15T06:35:19.985Z,23.73
2023-02-15T06:42:09.676Z,23.92
2023-02-15T06:44:51.250Z,25.08
2023-02-15T06:47:25.083Z,19.77
2023-02-15T06:49:56.968Z,24.63
2023-02-15T06:52:30.940Z,21.40
2023-02-15T06:55:03.352Z,22.05
2023-02-15T06:57:33.425Z,22.75
2023-02-15T07:00:01.059Z,28.13
2023-02-15T07:02:28.649Z,21.48
2023-02-15T07:05:08.108Z,22.40
2023-02-15T07:07:40.943Z,22.35
2023-02-15T07:10:09.346Z,23.92
2023-02-15T07:15:18.494Z,22.65
2023-02-15T07:17:45.585Z,21.10
2023-02-15T07:22:43.825Z,22.42
2023-02-15T07:25:12.341Z,22.55
2023-02-15T07:27:40.112Z,22.23
2023-02-15T07:30:11.352Z,22.08
2023-02-15T07:32:58.571Z,19.52
2023-02-15T07:35:25.678Z,21.83
2023-02-15T07:37:54.090Z,22.63
2023-02-15T07:40:23.360Z,20.25
2023-02-15T07:42:54.102Z,20.58
2023-02-15T07:45:22.361Z,22.58
2023-02-15T07:47:49.340Z,22.23
2023-02-15T07:52:44.205Z,13.38
2023-02-15T07:55:13.662Z,16.27
2023-02-15T07:57:48.585Z,16.63
2023-02-15T08:00:18.639Z,17.80
2023-02-15T08:03:10.020Z,15.25
2023-02-15T08:05:37.330Z,18.27
2023-02-15T08:08:04.441Z,17.42
2023-02-15T08:10:50.790Z,14.52
2023-02-15T08:13:17.867Z,19.23
2023-02-15T08:15:52.511Z,17.50
2023-02-15T08:18:19.403Z,16.30
2023-02-15T08:20:55.169Z,15.80
2023-02-15T08:23:22.150Z,19.27
2023-02-15T08:28:15.800Z,14.85
2023-02-15T08:30:43.094Z,18.15
2023-02-15T08:33:13.041Z,17.50
2023-02-15T08:35:39.856Z,18.58
2023-02-15T08:38:06.541Z,18.85
2023-02-15T08:40:33.263Z,18.05
2023-02-15T08:42:59.966Z,15.35
2023-02-15T08:45:26.900Z,18.02
2023-02-15T08:47:54.025Z,18.35
2023-02-15T08:52:47.357Z,16.65
2023-02-15T08:55:14.305Z,16.65
2023-02-15T08:57:45.800Z,17.08
2023-02-15T09:00:13.100Z,18.25
2023-02-15T09:02:40.016Z,16.08
2023-02-15T09:05:07.350Z,17.42
2023-02-15T09:07:34.077Z,15.63
2023-02-15T09:10:00.807Z,17.40
2023-02-15T09:12:27.657Z,18.17
2023-02-15T09:14:54.518Z,15.27
2023-02-15T09:17:21.321Z,18.33
2023-02-15T09:19:48.441Z,18.98
2023-02-15T09:22:15.204Z,18.13
2023-02-15T09:24:42.105Z,18.77
2023-02-15T09:27:08.889Z,19.73
2023-02-15T09:29:35.722Z,21.70
2023-02-15T09:32:02.459Z,24.95
2023-02-15T09:34:29.247Z,19.83
2023-02-15T09:36:56.101Z,18.25
2023-02-15T09:39:25.409Z,22.20
2023-02-15T09:42:04.803Z,21.20
2023-02-15T09:44:31.634Z,24.33
2023-02-15T09:47:38.017Z,24.30
2023-02-15T09:50:23.104Z,25.85
2023-02-15T09:52:55.681Z,23.10
2023-02-15T09:55:34.618Z,26.23
2023-02-15T09:58:46.336Z,25.45
2023-02-15T10:01:21.536Z,22.75
2023-02-15T10:03:57.150Z,22.58
2023-02-15T10:06:34.055Z,23.20
2023-02-15T10:09:10.861Z,24.33
2023-02-15T10:11:51.037Z,25.55
2023-02-15T10:14:20.529Z,25.58
2023-02-15T10:17:03.328Z,23.33
2023-02-15T10:20:11.542Z,23.95
2023-02-15T10:23:12.046Z,23.55
2023-02-15T10:25:52.545Z,21.98
2023-02-15T10:28:24.210Z,24.40
2023-02-15T10:30:54.848Z,23.15
2023-02-15T10:33:41.678Z,24.55
2023-02-15T10:36:38.038Z,23.80
2023-02-15T10:39:29.249Z,29.23
2023-02-15T10:42:23.963Z,26.30
2023-02-15T10:44:59.985Z,26.88
2023-02-15T10:47:40.272Z,25.13
2023-02-15T10:50:26.186Z,25.75
2023-02-15T10:53:18.290Z,27.08
2023-02-15T10:56:08.254Z,22.90
2023-02-15T10:58:56.890Z,25.98
2023-02-15T11:01:42.096Z,26.27
2023-02-15T11:04:35.392Z,26.15
2023-02-15T11:07:09.103Z,27.75
2023-02-15T11:09:51.036Z,31.60
2023-02-15T11:12:25.618Z,31.80
2023-02-15T11:15:04.747Z,29.88
2023-02-15T11:17:39.949Z,29.77
2023-02-15T11:20:22.396Z,28.30
2023-02-15T11:22:52.037Z,29.45
2023-02-15T11:25:31.773Z,32.22
2023-02-15T11:28:00.638Z,32.10
2023-02-15T11:30:39.484Z,32.03
2023-02-15T11:33:07.712Z,30.75
2023-02-15T11:35:50.192Z,37.05
2023-02-15T11:38:30.836Z,33.22
2023-02-15T11:41:09.694Z,34.83
2023-02-15T11:43:54.930Z,31.90
2023-02-15T11:46:22.928Z,34.78
2023-02-15T11:48:49.969Z,33.17
2023-02-15T11:51:23.648Z,37.33
2023-02-15T11:53:52.038Z,30.40
2023-02-15T11:56:27.184Z,34.42
2023-02-15T11:59:01.553Z,30.15
2023-02-15T12:01:38.834Z,35.05
2023-02-15T12:04:14.101Z,25.20
2023-02-15T12:06:50.451Z,33.22
2023-02-15T12:09:23.779Z,28.77
2023-02-15T12:11:50.685Z,25.73
2023-02-15T12:14:17.480Z,29.08
2023-02-15T12:16:56.831Z,31.40
2023-02-15T12:19:41.423Z,32.90
2023-02-15T12:22:30.274Z,29.25
2023-02-15T12:25:01.220Z,33.15
2023-02-15T12:27:33.134Z,29.88
2023-02-15T12:30:05.093Z,29.13
2023-02-15T12:32:47.371Z,30.83
2023-02-15T12:35:17.574Z,28.60
2023-02-15T12:37:58.910Z,31.60
2023-02-15T12:40:31.323Z,31.13
2023-02-15T12:42:59.190Z,36.83
2023-02-15T12:45:30.195Z,35.05
2023-02-15T12:48:19.492Z,31.50
2023-02-15T12:50:55.009Z,35.10
2023-02-15T12:53:35.458Z,34.00
2023-02-15T12:56:07.669Z,37.90
2023-02-15T12:58:39.233Z,36.22
2023-02-15T13:01:22.966Z,35.50
2023-02-15T13:04:05.727Z,36.03
2023-02-15T13:06:35.731Z,35.22
2023-02-15T13:09:33.636Z,37.38
2023-02-15T13:12:24.292Z,39.58
2023-02-15T13:14:53.171Z,38.40
2023-02-15T13:17:30.133Z,40.65
2023-02-15T13:20:01.616Z,39.67
2023-02-15T13:22:47.655Z,40.95
2023-02-15T13:25:22.716Z,39.75
2023-02-15T13:28:03.665Z,40.65
2023-02-15T13:30:36.090Z,37.67
2023-02-15T13:33:11.669Z,39.83
2023-02-15T13:35:48.411Z,37.08
2023-02-15T13:38:17.929Z,37.38
2023-02-15T13:40:59.505Z,35.63
2023-02-15T13:43:36.903Z,36.95
2023-02-15T13:46:09.972Z,36.53
2023-02-15T13:48:50.359Z,38.97
2023-02-15T13:51:44.380Z,36.33
2023-02-15T13:54:37.533Z,38.83
2023-02-15T13:57:17.573Z,36.55
2023-02-15T13:59:57.312Z,38.83
2023-02-15T14:02:53.468Z,37.63
2023-02-15T14:05:32.575Z,33.97
2023-02-15T14:08:09.807Z,37.83
2023-02-15T14:10:51.136Z,43.45
2023-02-15T14:13:39.673Z,39.10
2023-02-15T14:16:35.900Z,38.40
2023-02-15T14:19:32.347Z,38.33
2023-02-15T14:22:12.031Z,39.28
2023-02-15T14:25:05.447Z,34.60
2023-02-15T14:27:55.753Z,38.22
2023-02-15T14:30:34.436Z,37.40
2023-02-15T14:33:09.873Z,37.33
2023-02-15T14:35:38.148Z,40.70
2023-02-15T14:38:07.603Z,37.35
2023-02-15T14:41:02.622Z,34.70
2023-02-15T14:43:48.495Z,35.83
2023-02-15T14:46:37.343Z,38.08
2023-02-15T14:49:31.975Z,37.55
2023-02-15T14:52:05.859Z,36.13
2023-02-15T14:54:35.155Z,37.47
2023-02-15T14:57:02.065Z,37.38
2023-02-15T15:02:04.800Z,39.50
2023-02-15T15:04:42.843Z,35.33
2023-02-15T15:07:19.796Z,36.72
2023-02-15T15:09:58.832Z,35.55
2023-02-15T15:12:37.674Z,38.67
2023-02-15T15:15:04.969Z,38.90
2023-02-15T15:17:39.138Z,34.75
2023-02-15T15:20:08.366Z,37.28
2023-02-15T15:22:36.481Z,37.17
2023-02-15T15:28:48.445Z,38.00
2023-02-15T15:31:21.120Z,36.38
2023-02-15T15:34:12.748Z,39.22
2023-02-15T15:37:14.912Z,39.53
2023-02-15T15:39:44.748Z,41.08
2023-02-15T15:42:32.612Z,40.65
2023-02-15T15:45:34.602Z,44.30
2023-02-15T15:48:51.451Z,44.78
2023-02-15T15:51:27.470Z,40.55
2023-02-15T15:53:55.195Z,45.00
2023-02-15T15:56:32.862Z,41.45
2023-02-15T15:59:08.431Z,47.25
2023-02-15T16:01:44.541Z,41.97
2023-02-15T16:04:33.462Z,44.80
2023-02-15T16:07:15.266Z,44.47
2023-02-15T16:09:42.080Z,43.72
2023-02-15T16:12:18.493Z,42.67
2023-02-15T16:14:48.273Z,46.17
2023-02-15T16:17:25.041Z,43.67
2023-02-15T16:19:53.340Z,41.90
2023-02-15T16:22:25.913Z,43.08
2023-02-15T16:25:02.429Z,41.55
2023-02-15T16:27:35.363Z,44.45
2023-02-15T16:30:39.474Z,41.38
2023-02-15T16:33:09.534Z,38.92
2023-02-15T16:35:39.775Z,42.38
2023-02-15T16:38:10.163Z,41.38
2023-02-15T16:40:41.076Z,41.90
2023-02-15T16:43:22.421Z,42.25
2023-02-15T16:45:49.910Z,38.83
2023-02-15T16:48:22.756Z,40.55
2023-02-15T16:50:53.798Z,42.00
2023-02-15T16:53:29.771Z,43.35
2023-02-15T16:56:02.747Z,41.85
2023-02-15T16:58:38.552Z,38.70
2023-02-15T17:01:08.908Z,40.63
2023-02-15T17:03:36.457Z,41.78
2023-02-15T17:06:04.737Z,39.90
2023-02-15T17:08:34.384Z,38.90
2023-02-15T17:11:04.811Z,42.70
2023-02-15T17:13:32.126Z,40.08
2023-02-15T17:18:44.620Z,41.13
2023-02-15T17:21:20.777Z,41.33
2023-02-15T17:23:52.525Z,41.63
2023-02-15T17:26:23.160Z,41.33
2023-02-15T17:29:10.822Z,41.83
2023-02-15T17:31:38.526Z,43.40
2023-02-15T17:34:05.710Z,38.33
2023-02-15T17:36:32.834Z,38.47
2023-02-15T17:43:56.202Z,37.42
2023-02-15T17:46:26.170Z,43.45
2023-02-15T17:48:56.201Z,39.03
2023-02-15T17:51:23.692Z,39.75
2023-02-15T17:54:11.164Z,44.25
2023-02-15T17:56:39.523Z,40.17
2023-02-15T17:59:11.540Z,38.50
2023-02-15T18:02:04.241Z,38.67
2023-02-15T18:04:52.449Z,40.20
2023-02-15T18:07:38.378Z,41.45
2023-02-15T18:10:44.292Z,39.47
2023-02-15T18:13:11.101Z,41.13
2023-02-15T18:15:37.883Z,44.38
2023-02-15T18:18:04.816Z,44.47
2023-02-15T18:20:37.196Z,41.22
2023-02-15T18:23:04.276Z,45.40
2023-02-15T18:25:31.251Z,37.83
2023-02-15T18:27:58.031Z,39.53
2023-02-15T18:30:27.901Z,43.33
2023-02-15T18:32:57.142Z,44.85
2023-02-15T18:35:28.421Z,43.47
2023-02-15T18:37:55.398Z,38.78
2023-02-15T18:40:27.475Z,43.22
2023-02-15T18:42:56.888Z,40.92
2023-02-15T18:45:28.557Z,38.92
2023-02-15T18:47:55.669Z,40.70
2023-02-15T18:50:32.839Z,41.47
2023-02-15T18:52:59.822Z,43.38
2023-02-15T18:55:28.326Z,43.38
2023-02-15T18:57:57.073Z,39.83
2023-02-15T19:00:34.911Z,43.67
2023-02-15T19:03:02.647Z,41.35
2023-02-15T19:05:31.840Z,44.38
2023-02-15T19:08:00.962Z,41.22
2023-02-15T19:10:31.216Z,40.40
2023-02-15T19:12:58.349Z,47.83
2023-02-15T19:17:54.056Z,49.97
2023-02-15T19:20:38.730Z,42.40
2023-02-15T19:23:09.280Z,42.03
2023-02-15T19:25:39.057Z,44.70
2023-02-15T19:28:16.208Z,41.80
2023-02-15T19:30:43.509Z,45.88
2023-02-15T19:33:20.714Z,43.95
2023-02-15T19:35:52.329Z,44.83
2023-02-15T19:38:23.747Z,44.63
2023-02-15T19:40:50.543Z,43.78
2023-02-15T19:43:21.358Z,43.63
2023-02-15T19:45:48.907Z,50.95
2023-02-15T19:48:15.863Z,49.83
2023-02-15T19:50:43.621Z,43.78
2023-02-15T19:53:23.237Z,47.22
2023-02-15T19:55:51.243Z,44.88
2023-02-15T19:58:19.247Z,42.45
2023-02-15T20:00:48.362Z,40.85
2023-02-15T20:03:16.611Z,41.85
2023-02-15T20:05:44.474Z,41.60
2023-02-15T20:08:20.812Z,41.78
2023-02-15T20:10:47.794Z,45.88
2023-02-15T20:13:16.911Z,42.25
2023-02-15T20:15:44.756Z,40.92
2023-02-15T20:18:12.472Z,40.53
2023-02-15T20:20:51.858Z,43.13
2023-02-15T20:23:37.274Z,40.10
2023-02-15T20:26:18.753Z,46.08
2023-02-15T20:28:46.476Z,43.50
2023-02-15T20:31:16.466Z,40.55
2023-02-15T20:33:43.341Z,41.42
2023-02-15T20:36:15.896Z,40.03
2023-02-15T20:38:44.187Z,42.22
2023-02-15T20:41:40.038Z,40.72
2023-02-15T20:44:29.368Z,37.83
2023-02-15T20:46:58.609Z,40.65
2023-02-15T20:49:27.344Z,40.05
2023-02-15T20:51:55.918Z,41.08
2023-02-15T20:54:34.723Z,41.58
2023-02-15T20:57:02.408Z,40.05
2023-02-15T20:59:32.025Z,39.17
2023-02-15T21:02:02.253Z,40.63
2023-02-15T21:04:34.273Z,42.70
2023-02-15T21:07:01.302Z,42.22
2023-02-15T21:09:28.639Z,45.53
2023-02-15T21:11:58.414Z,41.22
2023-02-15T21:14:28.343Z,42.75
2023-02-15T21:16:55.220Z,41.67
2023-02-15T21:19:23.752Z,45.33
2023-02-15T21:21:53.172Z,42.88
2023-02-15T21:24:24.355Z,45.90
2023-02-15T21:26:51.962Z,46.63
2023-02-15T21:29:21.123Z,41.30
2023-02-15T21:31:54.129Z,44.05
2023-02-15T21:34:28.778Z,38.58
2023-02-15T21:36:55.962Z,39.53
2023-02-15T21:39:25.970Z,42.47
2023-02-15T21:42:13.548Z,42.50
2023-02-15T21:44:59.517Z,42.15
2023-02-15T21:47:49.954Z,46.92
2023-02-15T21:50:47.692Z,43.95
2023-02-15T21:53:25.565Z,42.15
2023-02-15T21:55:58.090Z,43.60
2023-02-15T21:58:28.270Z,43.30
2023-02-15T22:00:57.535Z,47.25
2023-02-15T22:03:26.504Z,43.17
2023-02-15T22:05:53.528Z,47.70
2023-02-15T22:08:20.371Z,43.88
2023-02-15T22:10:48.246Z,42.92
2023-02-15T22:13:26.480Z,48.05
2023-02-15T22:15:53.263Z,43.70
2023-02-15T22:18:23.513Z,45.00
2023-02-15T22:20:50.980Z,47.50
2023-02-15T22:23:17.737Z,43.80
2023-02-15T22:26:09.435Z,51.65
2023-02-15T22:28:39.348Z,45.95
2023-02-15T22:31:14.866Z,47.67
2023-02-15T22:33:41.957Z,46.70
2023-02-15T22:36:27.602Z,48.90
2023-02-15T22:38:55.229Z,48.13
2023-02-15T22:41:26.035Z,51.35
2023-02-15T22:43:53.073Z,49.38
2023-02-15T22:48:49.143Z,44.75
2023-02-15T22:51:17.988Z,43.78
2023-02-15T22:53:44.779Z,46.72
2023-02-15T22:56:40.652Z,47.50
2023-02-15T22:59:14.670Z,48.83
2023-02-15T23:01:41.530Z,43.95
2023-02-15T23:04:18.957Z,49.08
2023-02-15T23:06:46.129Z,48.00
2023-02-15T23:11:40.210Z,44.30
2023-02-15T23:16:42.919Z,48.20
2023-02-15T23:19:12.865Z,51.28
2023-02-15T23:21:39.659Z,51.35
2023-02-15T23:24:20.450Z,46.33
2023-02-15T23:26:48.051Z,48.53
2023-02-15T23:29:17.849Z,44.33
2023-02-15T23:31:48.091Z,43.28
2023-02-15T23:34:22.232Z,49.03
2023-02-15T23:36:49.020Z,43.47
2023-02-15T23:39:37.656Z,43.00
2023-02-15T23:42:10.411Z,44.55
2023-02-15T23:44:38.092Z,44.05
2023-02-15T23:47:05.865Z,43.13
2023-02-15T23:49:32.732Z,45.83
2023-02-15T23:51:59.872Z,46.72
2023-02-15T23:56:57.327Z,44.83
2023-02-15T23:59:26.014Z,41.25
